Friday, October 19, 2018, 10:34 PM GMT
Back to Local

CYHZ, Halifax International Airport

Location: , , Canada Lat: 44.883
Local Time: 10:34 PM GMT (22:34 GMT) Lon: -63.5
Time Zone: GMT Elev: 475 ft

Show me the last for .
Show Coded

Time T Td Feel RH Dir Speed Gust Alt SLP Vis Weather Sky Remarks
2018-10-19 22:00 37 27 - 64 Variable 2 - 30.04 30.06 15 SCT100 SCT270 None
2018-10-19 21:00 41 27 38 56 290° 5 - 30.04 30.06 15 FEW045 SCT270 None
2018-10-19 20:00 43 23 38 45 290° 8 - 30.03 30.05 15 FEW048 SCT270 None
2018-10-19 19:00 43 23 35 45 270° 9 17 30.03 30.05 15 FEW052 SCT270 None
2018-10-19 18:00 41 21 36 44 270° 8 - 30.03 30.05 15 FEW054 FEW270 None
2018-10-19 17:00 41 19 31 41 300° 14 23 30.04 30.06 15 FEW052 FEW250 None
2018-10-19 16:00 39 19 28 44 290° 15 28 30.05 30.07 15 FEW051 None
2018-10-19 15:00 39 19 29 44 310° 15 23 30.06 30.08 15 FEW045 FEW250 None
2018-10-19 14:00 36 21 23 55 300° 20 26 30.06 30.08 15 FEW034 None
2018-10-19 13:00 34 23 22 64 300° 15 21 30.05 30.07 15 SCT030 None
2018-10-19 12:00 32 23 24 68 280° 10 - 30.06 30.08 15 FEW029 None
2018-10-19 11:00 28 23 20 79 270° 9 - 30.04 30.06 15 FEW032 None
2018-10-19 10:00 28 23 18 79 280° 12 - 30.03 30.05 15 SCT032 None
2018-10-19 09:00 30 23 18 74 300° 12 20 30.01 30.03 15 FEW031 None
2018-10-19 08:00 30 23 18 74 310° 13 18 29.99 30.01 15 BKN035 None
2018-10-19 07:00 32 21 20 63 290° 14 20 29.97 29.99 15 SCT033 None
2018-10-19 06:00 32 21 21 63 290° 10 17 29.96 29.98 15 CLR None
2018-10-19 05:00 34 19 24 55 290° 14 - 29.94 29.96 15 BKN045 None
2018-10-19 04:00 32 19 19 59 300° 20 25 29.93 29.95 15 CLR None
2018-10-19 03:00 34 19 22 55 320° 14 21 29.92 29.94 15 SCT051 None
2018-10-19 02:00 34 21 19 59 310° 21 35 29.90 29.92 15 SCT043 None
2018-10-19 01:00 36 23 22 59 310° 22 33 29.87 29.89 15 FEW043 None
2018-10-19 00:00 36 21 21 55 300° 25 37 29.84 29.86 15 BKN053 None
2018-10-18 23:00 37 21 24 51 310° 23 33 29.81 29.83 15 SCT050 BKN120 None
2018-10-18 22:35 36 23 22 59 300° 21 35 29.79 29.81 15 SCT040 BKN260 None

Support USWX by starting your Amazon purchase here.